Time;durP1;ratioP1;P1;durP2;ratioP2;P2;SDS_P1;SDS_P2;PMS_P1;PMS_P2;Temp;Humidity;BMP_temperature;BMP_pressure;BME280_temperature;BME280_humidity;BME280_pressure;Samples;Min_cycle;Max_cycle;Signal;HPM_P1;HPM_P2
2021/10/01 00:02:08;;;;;;;6.80;2.97;;;12.50;99.90;;;;;;5012282;28;20197;-71
2021/10/01 00:04:34;;;;;;;3.03;2.73;;;12.50;99.90;;;;;;5008295;28;20758;-70
2021/10/01 00:07:00;;;;;;;4.30;2.37;;;12.20;99.90;;;;;;5009176;28;20212;-70
2021/10/01 00:09:26;;;;;;;2.83;2.33;;;12.20;99.90;;;;;;5010519;28;20465;-71
2021/10/01 00:11:52;;;;;;;4.00;2.20;;;12.20;99.90;;;;;;5008044;28;20521;-70
2021/10/01 00:14:22;;;;;;;2.70;2.37;;;12.50;99.90;;;;;;5011922;28;20200;-70
2021/10/01 00:16:48;;;;;;;3.13;2.60;;;12.50;99.90;;;;;;5008190;28;20440;-70
2021/10/01 00:19:15;;;;;;;9.90;2.90;;;12.30;99.90;;;;;;5008308;28;20514;-70
2021/10/01 00:21:41;;;;;;;2.50;2.30;;;12.10;99.90;;;;;;5012173;28;20428;-69
2021/10/01 00:24:08;;;;;;;4.50;2.90;;;12.00;99.90;;;;;;5007399;28;20807;-69
2021/10/01 00:26:36;;;;;;;2.67;2.40;;;12.20;99.90;;;;;;5008690;28;20260;-71
2021/10/01 00:29:03;;;;;;;3.07;2.60;;;12.10;99.90;;;;;;5011600;28;20969;-71
2021/10/01 00:31:28;;;;;;;6.70;2.87;;;12.50;99.90;;;;;;5009956;28;20463;-68
2021/10/01 00:33:54;;;;;;;5.60;2.70;;;12.60;99.90;;;;;;5010432;28;20428;-70
2021/10/01 00:36:20;;;;;;;5.03;3.70;;;12.80;99.90;;;;;;5007519;28;20209;-71
2021/10/01 00:38:45;;;;;;;3.90;3.07;;;12.80;99.90;;;;;;5003880;28;20225;-69
2021/10/01 00:41:11;;;;;;;5.60;2.77;;;12.40;99.90;;;;;;5008763;28;20216;-70
2021/10/01 00:43:37;;;;;;;8.20;2.90;;;12.20;99.90;;;;;;5003833;28;20699;-70
2021/10/01 00:46:02;;;;;;;5.07;2.97;;;12.30;99.90;;;;;;5004886;28;20228;-70
2021/10/01 00:48:28;;;;;;;3.50;2.50;;;12.50;99.90;;;;;;5007557;28;20193;-70
2021/10/01 00:50:54;;;;;;;4.27;2.70;;;12.60;99.90;;;;;;5003913;28;20225;-70
2021/10/01 00:53:20;;;;;;;4.93;2.57;;;12.60;99.90;;;;;;5007438;28;20197;-70
2021/10/01 00:55:47;;;;;;;4.60;2.43;;;12.50;99.90;;;;;;5005823;28;20170;-71
2021/10/01 00:58:12;;;;;;;5.53;3.07;;;12.50;99.90;;;;;;4988082;28;20875;-71
2021/10/01 01:00:52;;;;;;;5.00;2.77;;;12.40;99.90;;;;;;5008145;28;20870;-71
2021/10/01 01:03:18;;;;;;;5.13;3.10;;;12.40;99.90;;;;;;5006392;28;20288;-71
2021/10/01 01:06:12;;;;;;;4.30;2.57;;;12.60;99.90;;;;;;5003869;28;20564;-71
2021/10/01 01:08:59;;;;;;;5.17;2.70;;;12.50;99.90;;;;;;5007710;28;20194;-71
2021/10/01 01:11:44;;;;;;;3.80;2.70;;;12.60;99.90;;;;;;5005672;28;20471;-71
2021/10/01 01:14:25;;;;;;;4.83;2.80;;;12.70;99.90;;;;;;5003633;28;20534;-71
2021/10/01 01:16:55;;;;;;;3.57;2.90;;;12.70;99.90;;;;;;5007129;28;20454;-71
2021/10/01 01:19:43;;;;;;;5.87;2.93;;;12.80;99.90;;;;;;5004219;28;20763;-71
2021/10/01 01:22:22;;;;;;;5.20;2.87;;;12.80;99.90;;;;;;5003248;28;20439;-70
2021/10/01 01:25:07;;;;;;;4.97;2.93;;;12.60;99.90;;;;;;5006558;28;20834;-71
2021/10/01 01:28:00;;;;;;;3.40;2.07;;;12.40;99.90;;;;;;5010892;28;20499;-71
2021/10/01 01:30:35;;;;;;;4.23;2.30;;;12.40;99.90;;;;;;5005393;28;20504;-71
2021/10/01 01:33:02;;;;;;;4.87;2.50;;;12.40;99.90;;;;;;5004694;28;20428;-71
2021/10/01 01:35:34;;;;;;;4.00;2.50;;;12.30;99.90;;;;;;5001828;28;22566;-71
2021/10/01 01:38:13;;;;;;;4.70;2.80;;;12.20;99.90;;;;;;4991155;28;20471;-71
2021/10/01 01:40:42;;;;;;;4.87;2.33;;;12.20;99.90;;;;;;5004956;28;20482;-71
2021/10/01 01:43:09;;;;;;;4.60;2.70;;;12.30;99.90;;;;;;5008035;28;21096;-71
2021/10/01 01:45:37;;;;;;;3.47;2.57;;;12.40;99.90;;;;;;5004753;28;20547;-70
2021/10/01 01:48:05;;;;;;;3.50;2.20;;;12.30;99.90;;;;;;5003448;28;20480;-71
2021/10/01 01:50:32;;;;;;;2.43;2.13;;;12.20;99.90;;;;;;5006487;28;20487;-71
2021/10/01 01:52:58;;;;;;;2.83;2.43;;;12.30;99.90;;;;;;5002850;28;20427;-71
2021/10/01 01:55:25;;;;;;;4.33;2.40;;;12.50;99.90;;;;;;4986652;28;20445;-71
2021/10/01 01:57:52;;;;;;;3.07;2.40;;;12.20;99.90;;;;;;4987389;28;20466;-71
2021/10/01 02:00:19;;;;;;;5.63;2.30;;;12.10;99.90;;;;;;5004169;28;20471;-71
2021/10/01 02:02:47;;;;;;;4.10;2.07;;;12.20;99.90;;;;;;5006653;28;20427;-72
2021/10/01 02:05:13;;;;;;;2.90;2.17;;;12.40;99.90;;;;;;5003335;28;20495;-71
2021/10/01 02:07:41;;;;;;;4.13;2.30;;;12.30;99.90;;;;;;5003997;28;20467;-72
2021/10/01 02:10:08;;;;;;;3.70;2.60;;;12.20;99.90;;;;;;4991864;28;20473;-71
2021/10/01 02:12:34;;;;;;;2.60;2.40;;;12.20;99.90;;;;;;5003219;28;20467;-71
2021/10/01 02:15:01;;;;;;;5.00;2.30;;;12.20;99.90;;;;;;5004253;28;20451;-71
2021/10/01 02:17:31;;;;;;;2.90;2.37;;;12.10;99.90;;;;;;5007554;28;20673;-71
2021/10/01 02:19:59;;;;;;;4.43;2.87;;;12.20;99.90;;;;;;5003564;28;20471;-71
2021/10/01 02:22:27;;;;;;;3.20;2.27;;;12.30;99.90;;;;;;5004446;28;20470;-71
2021/10/01 02:24:53;;;;;;;3.87;2.70;;;12.30;99.90;;;;;;5004851;28;20907;-70
2021/10/01 02:27:31;;;;;;;3.37;2.70;;;11.80;99.90;;;;;;5003189;28;20475;-71
2021/10/01 02:30:08;;;;;;;4.03;2.43;;;11.70;99.90;;;;;;5005443;28;20263;-71
2021/10/01 02:32:38;;;;;;;5.50;2.17;;;11.80;99.90;;;;;;5004368;28;20982;-71
2021/10/01 02:35:06;;;;;;;3.67;2.33;;;12.10;99.90;;;;;;5000722;28;20456;-71
2021/10/01 02:37:32;;;;;;;6.17;2.73;;;12.00;99.90;;;;;;5006277;28;20483;-71
2021/10/01 02:39:59;;;;;;;2.90;2.60;;;11.70;99.90;;;;;;5004467;28;20479;-71
2021/10/01 02:42:26;;;;;;;4.57;2.60;;;11.90;99.90;;;;;;5003603;28;20843;-71
2021/10/01 02:44:55;;;;;;;3.87;2.37;;;11.70;99.90;;;;;;5005479;28;20798;-71
2021/10/01 02:47:26;;;;;;;2.63;2.20;;;11.80;99.90;;;;;;5003697;28;20995;-71
2021/10/01 02:49:52;;;;;;;2.90;2.40;;;11.90;99.90;;;;;;5004926;28;20541;-71
2021/10/01 02:52:35;;;;;;;4.33;2.60;;;11.90;99.90;;;;;;5007668;28;20647;-71
2021/10/01 02:55:11;;;;;;;2.60;2.23;;;12.10;99.90;;;;;;5002715;28;20618;-71
2021/10/01 02:57:49;;;;;;;3.80;1.97;;;12.10;99.90;;;;;;5004915;28;20436;-71
2021/10/01 03:00:16;;;;;;;4.27;2.70;;;12.10;99.90;;;;;;5002406;28;21161;-68
2021/10/01 03:02:43;;;;;;;5.40;3.30;;;11.80;99.90;;;;;;5001686;28;20468;-70
2021/10/01 03:05:10;;;;;;;3.90;2.60;;;11.60;99.90;;;;;;5007138;28;20665;-70
2021/10/01 03:07:35;;;;;;;8.33;3.53;;;11.70;99.90;;;;;;4999937;28;20537;-71
2021/10/01 03:10:05;;;;;;;5.37;3.40;;;11.50;99.90;;;;;;5003152;28;20475;-70
2021/10/01 03:12:32;;;;;;;4.43;2.87;;;11.30;99.90;;;;;;5005366;28;20193;-71
2021/10/01 03:15:00;;;;;;;3.47;2.63;;;11.30;99.90;;;;;;5002320;28;20491;-71
2021/10/01 03:17:26;;;;;;;4.60;3.20;;;11.30;99.90;;;;;;5004418;28;20975;-71
2021/10/01 03:19:53;;;;;;;6.27;3.10;;;11.20;99.90;;;;;;5007050;28;20514;-71
2021/10/01 03:22:19;;;;;;;5.50;3.07;;;11.10;99.90;;;;;;5003031;28;20459;-70
2021/10/01 03:24:46;;;;;;;4.23;3.10;;;11.20;99.90;;;;;;5002190;28;20435;-70
2021/10/01 03:27:12;;;;;;;6.37;3.73;;;11.20;99.90;;;;;;5003883;28;20550;-70
2021/10/01 03:29:39;;;;;;;3.80;2.50;;;11.20;99.90;;;;;;5002118;28;20475;-71
2021/10/01 03:32:05;;;;;;;4.57;2.93;;;11.10;99.90;;;;;;5006824;28;20239;-71
2021/10/01 03:34:31;;;;;;;3.50;2.57;;;11.10;99.90;;;;;;5003663;28;20450;-71
2021/10/01 03:36:56;;;;;;;4.73;2.53;;;10.90;99.90;;;;;;5002232;28;20452;-71
2021/10/01 03:39:22;;;;;;;5.70;2.40;;;10.90;99.90;;;;;;4987435;28;20295;-70
2021/10/01 03:41:49;;;;;;;3.90;2.60;;;11.00;99.90;;;;;;5000424;28;20197;-70
2021/10/01 03:44:15;;;;;;;6.00;2.90;;;11.10;99.90;;;;;;5003723;28;20444;-71
2021/10/01 03:46:40;;;;;;;4.40;2.40;;;11.50;99.90;;;;;;5002819;28;20675;-70
2021/10/01 03:49:07;;;;;;;3.90;3.10;;;11.00;99.90;;;;;;5001823;28;20673;-70
2021/10/01 03:51:32;;;;;;;7.83;4.70;;;11.10;99.90;;;;;;5005240;28;20252;-70
2021/10/01 03:53:59;;;;;;;3.00;2.20;;;11.00;99.90;;;;;;4984507;28;20503;-71
2021/10/01 03:56:25;;;;;;;4.93;2.50;;;11.00;99.90;;;;;;5001814;28;20205;-70
2021/10/01 03:58:50;;;;;;;7.20;2.60;;;10.90;99.90;;;;;;5005017;28;20975;-70
2021/10/01 04:01:17;;;;;;;2.93;2.30;;;10.90;99.90;;;;;;5004468;28;20228;-71
2021/10/01 04:03:42;;;;;;;4.63;3.10;;;10.80;99.90;;;;;;5004592;28;20626;-70
2021/10/01 04:06:08;;;;;;;6.57;3.10;;;10.80;99.90;;;;;;5002856;28;20444;-71
2021/10/01 04:08:34;;;;;;;4.10;3.20;;;10.80;99.90;;;;;;5003880;28;20206;-71
2021/10/01 04:11:01;;;;;;;3.37;2.40;;;11.00;99.90;;;;;;5004190;28;20498;-70
2021/10/01 04:13:27;;;;;;;3.00;2.43;;;11.10;99.90;;;;;;5009673;28;20431;-70
2021/10/01 04:15:53;;;;;;;4.50;2.43;;;11.20;99.90;;;;;;5007295;28;20464;-71
2021/10/01 04:18:20;;;;;;;4.20;2.40;;;11.30;99.90;;;;;;5006311;28;20454;-70
2021/10/01 04:20:46;;;;;;;3.97;2.40;;;11.30;99.90;;;;;;5007824;28;20438;-70
2021/10/01 04:23:13;;;;;;;5.90;4.00;;;11.40;99.90;;;;;;5004203;28;20478;-70
2021/10/01 04:25:39;;;;;;;5.27;2.80;;;11.30;99.90;;;;;;5007181;28;20923;-70
2021/10/01 04:28:06;;;;;;;2.90;2.60;;;11.30;99.90;;;;;;5006723;28;20526;-71
2021/10/01 04:30:34;;;;;;;3.50;3.20;;;11.60;99.90;;;;;;5006825;28;20688;-71
2021/10/01 04:33:01;;;;;;;2.80;2.60;;;11.60;99.90;;;;;;5006792;28;20501;-70
2021/10/01 04:35:27;;;;;;;10.63;2.67;;;11.50;99.90;;;;;;5005142;28;20456;-70
2021/10/01 04:37:53;;;;;;;3.00;2.40;;;11.30;99.90;;;;;;5006314;28;20467;-71
2021/10/01 04:40:18;;;;;;;3.10;2.40;;;11.50;99.90;;;;;;5006370;28;20432;-70
2021/10/01 04:42:44;;;;;;;3.57;2.93;;;11.50;99.90;;;;;;5005552;28;20205;-68
2021/10/01 04:45:10;;;;;;;2.53;2.33;;;11.50;99.90;;;;;;5008662;28;20197;-69
2021/10/01 04:47:37;;;;;;;6.90;2.43;;;11.40;99.90;;;;;;5005711;28;20220;-70
2021/10/01 04:50:05;;;;;;;2.40;2.20;;;11.50;99.90;;;;;;5007895;28;20503;-70
2021/10/01 04:52:31;;;;;;;3.50;2.30;;;11.60;99.90;;;;;;5005619;28;20448;-70
2021/10/01 04:54:56;;;;;;;4.20;2.57;;;11.30;99.90;;;;;;5003949;28;20938;-70
2021/10/01 04:57:22;;;;;;;4.17;2.57;;;11.10;99.90;;;;;;5008212;28;20448;-71
2021/10/01 04:59:48;;;;;;;3.30;2.40;;;11.00;99.90;;;;;;5002323;28;20267;-71
2021/10/01 05:02:13;;;;;;;3.73;2.33;;;11.20;99.90;;;;;;5003576;28;20202;-70
2021/10/01 05:04:39;;;;;;;3.30;2.80;;;11.30;99.90;;;;;;5009158;28;20200;-70
2021/10/01 05:07:04;;;;;;;3.87;2.77;;;11.20;99.90;;;;;;5000823;28;20213;-70
2021/10/01 05:09:30;;;;;;;4.10;2.40;;;10.80;99.90;;;;;;5007335;28;20255;-70
2021/10/01 05:11:56;;;;;;;2.40;2.00;;;10.70;99.90;;;;;;5008493;28;20220;-70
2021/10/01 05:14:21;;;;;;;3.77;2.77;;;10.80;99.90;;;;;;5005209;28;20212;-70
2021/10/01 05:16:47;;;;;;;4.63;3.20;;;10.90;99.90;;;;;;5005272;28;20304;-70
2021/10/01 05:19:13;;;;;;;6.10;4.00;;;10.90;99.90;;;;;;5006412;28;20264;-70
2021/10/01 05:21:38;;;;;;;7.90;3.43;;;10.90;99.90;;;;;;5004507;28;20305;-70
2021/10/01 05:24:04;;;;;;;6.97;2.77;;;10.90;99.90;;;;;;5006528;28;20195;-70
2021/10/01 05:26:30;;;;;;;4.27;2.53;;;11.10;99.90;;;;;;5004522;28;20220;-70
2021/10/01 05:28:56;;;;;;;4.43;2.40;;;11.20;99.90;;;;;;5004801;28;20564;-70
2021/10/01 05:31:22;;;;;;;3.50;2.37;;;11.10;99.90;;;;;;5005557;28;20209;-70
2021/10/01 05:33:48;;;;;;;5.37;3.60;;;10.90;99.90;;;;;;5007260;28;20439;-70
2021/10/01 05:36:15;;;;;;;3.10;2.57;;;10.90;99.90;;;;;;5008336;28;20197;-70
2021/10/01 05:38:41;;;;;;;2.57;2.37;;;10.90;99.90;;;;;;5004271;28;20192;-70
2021/10/01 05:41:07;;;;;;;4.07;2.20;;;11.20;99.90;;;;;;5003828;28;20447;-71
2021/10/01 05:43:32;;;;;;;7.43;2.83;;;11.00;99.90;;;;;;5006951;28;20212;-70
2021/10/01 05:45:59;;;;;;;3.70;3.00;;;10.90;99.90;;;;;;5003601;28;20228;-70
2021/10/01 05:48:27;;;;;;;4.30;2.90;;;10.80;99.90;;;;;;5004668;28;20213;-69
2021/10/01 05:50:57;;;;;;;5.00;3.00;;;10.70;99.90;;;;;;5006078;28;20928;-70
2021/10/01 05:56:01;;;;;;;3.97;2.90;;;10.60;99.90;;;;;;5005512;28;20452;-69
2021/10/01 05:58:27;;;;;;;3.93;2.53;;;10.60;99.90;;;;;;5004667;28;20419;-70
2021/10/01 06:00:52;;;;;;;3.27;2.90;;;10.70;99.90;;;;;;5004567;28;20259;-70
2021/10/01 06:03:18;;;;;;;4.20;2.83;;;11.00;99.90;;;;;;5007199;28;20239;-70
2021/10/01 06:05:44;;;;;;;7.67;3.00;;;11.10;99.90;;;;;;5003575;28;20212;-69
2021/10/01 06:08:09;;;;;;;3.87;2.90;;;11.20;99.90;;;;;;5005413;28;20233;-70
2021/10/01 06:10:35;;;;;;;5.53;3.37;;;11.30;99.90;;;;;;5006517;28;20220;-70
2021/10/01 06:13:00;;;;;;;3.20;2.70;;;11.40;99.90;;;;;;5002564;28;20696;-70
2021/10/01 06:15:26;;;;;;;5.50;3.00;;;11.50;99.90;;;;;;5005989;28;20320;-70
2021/10/01 06:17:52;;;;;;;6.87;3.13;;;11.50;99.90;;;;;;5004614;28;20225;-70
2021/10/01 06:20:17;;;;;;;4.40;2.67;;;11.50;99.90;;;;;;5004155;28;20208;-70
2021/10/01 06:22:43;;;;;;;4.20;3.10;;;11.30;99.90;;;;;;5010579;28;20622;-71
2021/10/01 06:25:09;;;;;;;7.77;3.10;;;11.30;99.90;;;;;;5003923;28;20704;-71
2021/10/01 06:27:34;;;;;;;8.40;3.53;;;11.50;99.90;;;;;;5003326;28;20260;-72
2021/10/01 06:30:00;;;;;;;4.87;3.20;;;11.30;99.90;;;;;;5001332;28;20716;-70
2021/10/01 06:32:30;;;;;;;4.13;3.10;;;11.40;99.90;;;;;;4987716;28;20240;-71
2021/10/01 06:34:56;;;;;;;4.50;2.83;;;11.60;99.90;;;;;;5005402;28;20203;-71
2021/10/01 06:37:21;;;;;;;4.43;3.60;;;11.60;99.90;;;;;;5004729;28;20455;-71
2021/10/01 06:39:47;;;;;;;4.97;3.77;;;11.60;99.90;;;;;;5004313;28;20197;-71
2021/10/01 06:42:14;;;;;;;8.00;3.27;;;11.70;99.90;;;;;;5002760;28;20313;-71
2021/10/01 06:44:43;;;;;;;5.97;3.80;;;11.70;99.90;;;;;;5001557;28;20197;-71
2021/10/01 06:47:13;;;;;;;5.73;2.73;;;11.80;99.90;;;;;;5003718;28;20973;-71
2021/10/01 06:49:53;;;;;;;5.87;2.87;;;11.80;99.90;;;;;;5005470;28;20796;-71
2021/10/01 08:19:34;;;;;;;6.23;4.50;;;12.60;99.90;;;;;;5008450;28;20435;-69
2021/10/01 08:22:00;;;;;;;7.80;4.30;;;12.80;99.90;;;;;;5008784;28;20440;-72
2021/10/01 08:24:27;;;;;;;8.93;4.03;;;12.90;99.90;;;;;;5003060;28;20220;-71
2021/10/01 08:26:53;;;;;;;4.47;3.73;;;12.90;99.90;;;;;;5008496;28;20558;-71
2021/10/01 08:29:20;;;;;;;8.93;4.27;;;13.00;99.90;;;;;;5010626;28;20416;-70
2021/10/01 08:31:48;;;;;;;9.90;6.10;;;13.00;99.90;;;;;;5007138;28;20463;-69
2021/10/01 08:34:15;;;;;;;6.37;5.17;;;13.20;99.90;;;;;;5006458;28;20482;-69
2021/10/01 08:36:41;;;;;;;4.87;3.70;;;13.30;99.90;;;;;;5005977;28;20475;-69
2021/10/01 08:39:08;;;;;;;8.30;3.73;;;13.30;99.90;;;;;;5006289;28;20440;-69
2021/10/01 08:41:36;;;;;;;14.63;11.67;;;13.20;99.90;;;;;;5009569;28;20834;-69
2021/10/01 08:44:02;;;;;;;10.87;6.67;;;13.30;99.90;;;;;;5004835;28;20485;-70
2021/10/01 08:46:30;;;;;;;6.17;4.30;;;13.40;99.90;;;;;;5006631;28;20506;-70
2021/10/01 08:49:00;;;;;;;6.20;3.83;;;13.50;99.90;;;;;;5006924;28;20482;-70
2021/10/01 08:51:26;;;;;;;6.53;3.33;;;13.50;99.90;;;;;;5005833;28;20985;-69
2021/10/01 08:53:55;;;;;;;11.70;3.50;;;13.50;99.90;;;;;;5005263;28;20445;-70
2021/10/01 08:56:24;;;;;;;4.10;3.03;;;13.50;99.90;;;;;;5007575;28;20463;-70
2021/10/01 08:58:50;;;;;;;6.50;3.30;;;13.60;99.90;;;;;;5004665;28;20929;-70
2021/10/01 09:01:16;;;;;;;6.83;4.10;;;13.60;99.90;;;;;;5004260;28;20437;-70
2021/10/01 09:03:42;;;;;;;5.50;3.50;;;13.50;99.90;;;;;;5007824;28;20819;-70
2021/10/01 09:06:09;;;;;;;4.53;3.70;;;13.60;99.90;;;;;;4986855;28;20200;-70
2021/10/01 09:08:51;;;;;;;4.60;3.40;;;13.80;99.90;;;;;;5007284;28;20578;-70
2021/10/01 09:11:18;;;;;;;5.87;3.20;;;13.80;99.90;;;;;;5004858;28;20546;-69
2021/10/01 09:13:44;;;;;;;4.00;2.93;;;13.80;99.90;;;;;;5004396;28;20431;-70
2021/10/01 09:16:12;;;;;;;6.80;4.17;;;13.90;99.90;;;;;;5005945;28;20444;-70
2021/10/01 09:18:40;;;;;;;5.50;3.27;;;13.90;99.90;;;;;;5006957;28;20185;-70
2021/10/01 09:21:06;;;;;;;4.60;3.47;;;13.90;99.90;;;;;;5003746;28;20852;-71
2021/10/01 09:23:36;;;;;;;4.00;3.00;;;13.90;99.90;;;;;;5004262;28;20516;-70
2021/10/01 09:26:13;;;;;;;5.27;2.80;;;13.90;99.90;;;;;;5005027;28;20185;-70
2021/10/01 09:28:49;;;;;;;3.83;3.10;;;13.80;99.90;;;;;;5004607;28;20427;-70
2021/10/01 09:31:47;;;;;;;4.33;3.20;;;14.00;99.90;;;;;;5008867;28;20471;-70
2021/10/01 09:34:35;;;;;;;3.93;3.17;;;14.20;99.90;;;;;;5004666;28;20451;-70
2021/10/01 09:37:07;;;;;;;3.60;3.10;;;14.30;99.90;;;;;;5002160;28;20488;-70
2021/10/01 09:39:41;;;;;;;7.30;3.00;;;14.30;99.90;;;;;;5005048;28;20436;-71
2021/10/01 09:42:19;;;;;;;6.20;2.90;;;14.30;99.90;;;;;;5007685;28;20599;-70
2021/10/01 09:44:55;;;;;;;3.97;3.20;;;14.40;99.90;;;;;;5004157;28;20428;-70
2021/10/01 09:47:27;;;;;;;3.90;3.20;;;14.50;99.90;;;;;;5005602;28;20448;-70
2021/10/01 09:50:21;;;;;;;5.33;3.07;;;14.50;99.90;;;;;;5006054;28;20800;-69
2021/10/01 09:52:53;;;;;;;3.13;2.80;;;14.50;99.90;;;;;;5002300;28;20887;-70
2021/10/01 09:55:20;;;;;;;7.50;2.93;;;14.70;99.90;;;;;;5004203;28;20432;-70
2021/10/01 09:58:14;;;;;;;8.03;3.30;;;14.70;99.90;;;;;;5006070;28;20987;-70
2021/10/01 10:00:45;;;;;;;4.40;2.83;;;14.70;99.90;;;;;;5004305;28;20446;-70
2021/10/01 10:03:23;;;;;;;5.00;2.93;;;14.70;99.90;;;;;;5004472;28;20447;-70
2021/10/01 10:06:04;;;;;;;3.10;2.80;;;14.90;99.90;;;;;;5005563;28;20936;-70
2021/10/01 10:08:38;;;;;;;9.33;3.47;;;15.00;99.90;;;;;;5003018;28;20704;-70
2021/10/01 10:11:16;;;;;;;3.20;2.90;;;15.00;99.90;;;;;;5005943;28;20499;-70
2021/10/01 10:13:47;;;;;;;3.10;2.87;;;15.10;99.90;;;;;;5005131;28;20809;-70
2021/10/01 10:16:17;;;;;;;4.80;2.90;;;15.10;99.90;;;;;;5003994;28;20467;-70
2021/10/01 10:18:44;;;;;;;5.03;2.90;;;15.20;99.90;;;;;;5003238;28;20482;-71
2021/10/01 10:21:11;;;;;;;4.03;2.83;;;15.10;99.90;;;;;;5006557;28;20446;-70
2021/10/01 10:23:36;;;;;;;3.20;2.90;;;15.20;99.90;;;;;;5005770;28;21050;-70
2021/10/01 10:26:02;;;;;;;3.90;2.57;;;15.20;99.90;;;;;;5002553;28;20528;-70
2021/10/01 10:28:33;;;;;;;3.10;2.63;;;15.20;99.90;;;;;;5004808;28;20719;-70
2021/10/01 10:30:58;;;;;;;3.23;2.73;;;15.20;99.90;;;;;;5003513;28;20498;-70
2021/10/01 10:33:38;;;;;;;3.30;2.70;;;15.40;99.90;;;;;;5005267;28;20890;-71
2021/10/01 10:36:32;;;;;;;3.93;2.70;;;15.50;99.90;;;;;;5006528;28;20577;-70
2021/10/01 10:39:10;;;;;;;3.93;2.40;;;15.60;99.90;;;;;;5005454;28;20935;-70
2021/10/01 10:41:40;;;;;;;4.40;2.63;;;15.80;99.90;;;;;;5002259;28;20482;-71
2021/10/01 10:44:07;;;;;;;3.57;3.27;;;15.90;99.90;;;;;;5004066;28;20432;-71
2021/10/01 10:46:35;;;;;;;6.10;2.80;;;15.90;99.90;;;;;;5005744;28;20986;-71
2021/10/01 10:49:25;;;;;;;3.30;2.87;;;15.90;99.90;;;;;;5003241;28;20451;-70
2021/10/01 10:52:16;;;;;;;4.73;2.90;;;15.90;99.90;;;;;;5005041;28;20552;-71
2021/10/01 10:54:49;;;;;;;3.50;2.40;;;16.00;99.90;;;;;;5004789;28;20448;-70
2021/10/01 10:57:18;;;;;;;5.47;2.50;;;16.00;99.90;;;;;;5002560;28;20433;-69
2021/10/01 10:59:48;;;;;;;3.60;2.40;;;16.10;99.90;;;;;;5000502;28;20425;-70
2021/10/01 11:02:41;;;;;;;6.63;2.83;;;16.50;99.90;;;;;;5003663;28;20437;-71
2021/10/01 11:05:16;;;;;;;7.10;2.70;;;16.60;99.90;;;;;;5005938;28;20800;-71
2021/10/01 11:07:54;;;;;;;6.70;2.80;;;16.70;99.90;;;;;;5003273;28;20972;-70
2021/10/01 11:10:33;;;;;;;4.47;2.80;;;16.70;99.90;;;;;;5003171;28;20464;-71
2021/10/01 11:13:21;;;;;;;3.63;2.90;;;16.70;99.90;;;;;;5002713;28;20966;-70
2021/10/01 11:16:09;;;;;;;3.07;2.57;;;16.80;99.90;;;;;;5001477;28;20787;-70
2021/10/01 11:18:46;;;;;;;13.27;3.33;;;16.80;99.90;;;;;;5001207;28;20414;-69
2021/10/01 11:24:15;;;;;;;4.43;3.17;;;17.20;99.90;;;;;;5002877;28;20426;-70
2021/10/01 11:26:50;;;;;;;6.07;2.50;;;17.10;99.90;;;;;;5001474;28;20440;-70
2021/10/01 11:29:19;;;;;;;3.20;2.30;;;17.20;99.90;;;;;;5004662;28;20466;-70
2021/10/01 11:31:44;;;;;;;4.63;2.63;;;17.30;99.90;;;;;;5001594;28;20474;-70
2021/10/01 11:34:10;;;;;;;3.10;1.97;;;17.30;99.90;;;;;;5004279;28;20428;-71
2021/10/01 11:36:39;;;;;;;3.70;2.20;;;17.40;99.90;;;;;;5003570;28;20205;-70
2021/10/01 11:39:13;;;;;;;2.63;2.10;;;17.40;99.90;;;;;;5005703;28;20798;-69
2021/10/01 11:41:48;;;;;;;2.20;2.00;;;17.60;99.90;;;;;;5004071;28;21006;-71
2021/10/01 11:44:15;;;;;;;2.13;1.93;;;17.80;99.90;;;;;;4986023;28;20517;-71
2021/10/01 11:46:48;;;;;;;3.57;2.80;;;18.00;99.90;;;;;;5005582;28;20448;-71
2021/10/01 11:49:19;;;;;;;3.83;2.60;;;18.40;99.90;;;;;;5002644;28;20433;-71
2021/10/01 11:52:03;;;;;;;3.70;3.20;;;19.10;99.90;;;;;;5004378;28;20864;-72
2021/10/01 11:54:29;;;;;;;2.80;2.00;;;20.30;99.90;;;;;;5002586;28;20532;-71
2021/10/01 11:57:00;;;;;;;2.67;2.10;;;21.40;99.90;;;;;;5002112;28;20445;-71
2021/10/01 11:59:46;;;;;;;2.57;2.00;;;22.20;99.90;;;;;;5004442;28;20430;-71
2021/10/01 12:02:24;;;;;;;2.87;2.30;;;22.70;99.30;;;;;;5003805;28;20413;-72
2021/10/01 12:04:49;;;;;;;2.93;2.17;;;24.20;95.70;;;;;;5002479;28;20432;-70
2021/10/01 12:07:15;;;;;;;3.27;2.30;;;24.70;93.50;;;;;;5003120;28;20466;-70
2021/10/01 12:09:41;;;;;;;2.80;2.20;;;24.90;92.20;;;;;;5001424;28;20374;-70
2021/10/01 12:12:08;;;;;;;2.63;2.33;;;25.40;92.50;;;;;;5000040;28;20224;-70
2021/10/01 12:14:34;;;;;;;3.40;2.70;;;26.30;88.70;;;;;;5005809;28;20196;-70
2021/10/01 12:17:06;;;;;;;3.70;2.77;;;26.30;85.80;;;;;;5001243;28;20554;-70
2021/10/01 12:19:33;;;;;;;2.40;2.20;;;26.20;86.60;;;;;;5005633;28;20470;-70
2021/10/01 12:22:04;;;;;;;3.10;2.60;;;26.50;83.50;;;;;;5004722;28;20486;-70
2021/10/01 12:24:50;;;;;;;5.53;2.63;;;27.50;81.10;;;;;;5001712;28;20408;-70
2021/10/01 12:27:19;;;;;;;4.37;2.30;;;27.60;76.80;;;;;;5001345;28;20498;-70
2021/10/01 12:29:47;;;;;;;2.50;2.10;;;27.10;78.40;;;;;;5004836;28;21015;-70
2021/10/01 12:32:14;;;;;;;3.83;2.43;;;28.30;75.00;;;;;;5004773;28;20458;-70
2021/10/01 12:34:55;;;;;;;3.60;3.10;;;28.00;74.40;;;;;;5005558;28;20868;-70
2021/10/01 12:37:23;;;;;;;2.97;2.20;;;27.60;74.50;;;;;;5009153;28;20447;-69
2021/10/01 12:39:52;;;;;;;2.60;2.13;;;27.80;71.10;;;;;;5005506;28;20494;-69
2021/10/01 12:42:29;;;;;;;4.23;2.30;;;28.00;73.20;;;;;;5000953;28;20490;-72
2021/10/01 12:44:56;;;;;;;4.07;2.50;;;29.10;72.40;;;;;;5007837;28;20804;-72
2021/10/01 12:47:22;;;;;;;2.30;2.03;;;29.00;69.70;;;;;;5006111;28;20439;-72
2021/10/01 12:50:02;;;;;;;3.50;2.10;;;29.00;68.80;;;;;;5005671;28;20479;-69
2021/10/01 12:52:29;;;;;;;4.10;2.67;;;28.70;66.90;;;;;;5008072;28;20205;-71
2021/10/01 12:54:56;;;;;;;2.30;2.10;;;28.50;68.00;;;;;;5004223;28;20452;-70
2021/10/01 12:57:28;;;;;;;2.20;2.00;;;28.40;67.80;;;;;;5004638;28;20857;-71
2021/10/01 13:00:02;;;;;;;4.13;2.23;;;27.60;68.30;;;;;;5008951;28;20923;-70
2021/10/01 13:02:41;;;;;;;4.23;2.03;;;27.20;71.30;;;;;;5005765;28;20419;-70
2021/10/01 13:05:29;;;;;;;3.63;2.30;;;26.80;71.00;;;;;;5005263;28;20429;-70
2021/10/01 13:07:57;;;;;;;4.83;2.50;;;26.80;73.10;;;;;;5006294;28;20463;-70
2021/10/01 13:10:27;;;;;;;2.53;2.33;;;27.40;73.40;;;;;;5004639;28;20464;-70
2021/10/01 13:13:11;;;;;;;2.70;2.50;;;28.00;72.00;;;;;;5002609;28;20860;-71
2021/10/01 13:15:38;;;;;;;2.50;2.20;;;27.80;73.60;;;;;;5008132;28;20428;-70
2021/10/01 13:18:20;;;;;;;4.10;2.20;;;28.60;72.70;;;;;;5006293;28;20864;-70
2021/10/01 13:21:15;;;;;;;3.43;2.30;;;29.60;70.70;;;;;;5006043;28;20420;-70
2021/10/01 13:23:44;;;;;;;2.93;2.13;;;29.80;65.60;;;;;;4998088;28;20432;-70
2021/10/01 13:26:30;;;;;;;4.63;4.23;;;30.40;65.10;;;;;;5005006;28;20495;-70
2021/10/01 13:29:00;;;;;;;7.10;3.40;;;30.00;64.00;;;;;;5005872;28;20432;-70
2021/10/01 13:31:26;;;;;;;3.87;2.67;;;29.80;63.70;;;;;;5006399;28;20503;-70
2021/10/01 13:33:54;;;;;;;3.00;2.43;;;29.00;64.80;;;;;;5003905;28;20486;-70
2021/10/01 13:36:20;;;;;;;3.07;2.87;;;29.00;64.60;;;;;;5000781;28;20882;-70
2021/10/01 13:38:46;;;;;;;2.63;2.13;;;28.60;64.60;;;;;;5007089;28;20799;-70
2021/10/01 13:41:15;;;;;;;2.70;2.50;;;28.20;66.40;;;;;;5006952;28;20447;-71
2021/10/01 13:43:41;;;;;;;4.13;2.90;;;27.40;67.10;;;;;;5005052;28;20839;-71
2021/10/01 13:46:09;;;;;;;7.07;3.13;;;27.50;67.70;;;;;;5005058;28;20448;-71
2021/10/01 13:48:35;;;;;;;3.37;2.37;;;27.90;68.50;;;;;;5002643;28;20424;-71
2021/10/01 13:51:02;;;;;;;2.50;2.30;;;28.30;66.80;;;;;;5004641;28;20456;-71
2021/10/01 13:53:28;;;;;;;3.83;2.50;;;28.80;66.30;;;;;;5007968;28;20178;-70
2021/10/01 13:55:54;;;;;;;2.73;2.30;;;27.60;65.40;;;;;;5005774;28;20427;-70
2021/10/01 13:58:20;;;;;;;2.67;2.40;;;27.50;67.40;;;;;;5008085;28;20467;-70
2021/10/01 14:00:46;;;;;;;2.83;2.57;;;28.10;67.00;;;;;;5003520;28;20440;-71
2021/10/01 14:03:12;;;;;;;4.23;2.73;;;28.30;66.10;;;;;;5003450;28;20587;-72
2021/10/01 14:05:39;;;;;;;6.33;2.90;;;27.40;67.20;;;;;;5006508;28;20429;-71
2021/10/01 14:08:05;;;;;;;4.10;3.00;;;27.60;69.10;;;;;;5007180;28;20899;-69
2021/10/01 14:10:32;;;;;;;4.87;2.83;;;27.30;67.00;;;;;;5004364;28;20467;-71
2021/10/01 14:12:59;;;;;;;5.47;2.63;;;26.70;69.30;;;;;;5005011;28;20490;-70
2021/10/01 14:15:26;;;;;;;4.17;2.90;;;25.90;69.50;;;;;;4984455;28;20421;-70
2021/10/01 14:17:52;;;;;;;3.10;2.50;;;25.20;72.10;;;;;;5005244;28;20491;-70
2021/10/01 14:20:21;;;;;;;2.50;2.30;;;24.80;73.90;;;;;;5007422;28;20420;-70
2021/10/01 14:22:49;;;;;;;2.50;2.30;;;24.90;74.70;;;;;;5001805;28;20435;-70
2021/10/01 14:25:16;;;;;;;6.20;2.50;;;25.20;73.70;;;;;;5004985;28;20808;-69
2021/10/01 14:27:43;;;;;;;2.53;2.17;;;25.00;73.40;;;;;;5004019;28;21163;-70
2021/10/01 14:30:12;;;;;;;2.43;2.23;;;24.80;74.00;;;;;;5001479;28;20436;-70
2021/10/01 14:32:39;;;;;;;2.47;2.27;;;24.40;76.20;;;;;;5005861;28;20994;-70